Time;durP1;ratioP1;P1;durP2;ratioP2;P2;SDS_P1;SDS_P2;PMS_P1;PMS_P2;Temp;Humidity;BMP_temperature;BMP_pressure;BME280_temperature;BME280_humidity;BME280_pressure;Samples;Min_cycle;Max_cycle;Signal;HPM_P1;HPM_P2
2022/05/13 00:01:32;;;;;;;0.40;0.40;;;;;;;10.14;93.25;100864.38;4969246;28;20215;-69
2022/05/13 00:03:59;;;;;;;0.23;0.23;;;;;;;10.03;93.14;100868.06;4966517;28;20224;-69
2022/05/13 00:06:25;;;;;;;1.03;0.60;;;;;;;9.98;92.85;100866.44;4974491;28;20217;-69
2022/05/13 00:08:53;;;;;;;0.30;0.30;;;;;;;9.89;93.04;100857.06;4967765;28;20223;-70
2022/05/13 00:11:20;;;;;;;0.40;0.40;;;;;;;9.92;95.22;100862.22;4968336;28;20206;-69
2022/05/13 00:13:46;;;;;;;0.30;0.30;;;;;;;9.85;94.26;100858.00;4967273;28;20198;-69
2022/05/13 00:16:13;;;;;;;0.37;0.37;;;;;;;9.79;94.96;100863.31;4968825;28;20213;-69
2022/05/13 00:18:39;;;;;;;0.30;0.30;;;;;;;9.70;93.53;100868.72;4978044;28;20257;-69
2022/05/13 00:21:06;;;;;;;0.47;0.40;;;;;;;9.64;94.63;100867.09;4975925;28;20206;-69
2022/05/13 00:23:33;;;;;;;0.27;0.27;;;;;;;9.70;97.83;100866.09;4968345;28;20222;-69
2022/05/13 00:26:00;;;;;;;0.40;0.40;;;;;;;9.64;97.10;100857.53;4968406;28;20214;-69
2022/05/13 00:28:27;;;;;;;0.40;0.40;;;;;;;9.57;96.78;100861.13;4965824;28;20194;-69
2022/05/13 00:30:53;;;;;;;0.37;0.37;;;;;;;9.50;96.67;100859.53;4974308;28;20194;-69
2022/05/13 00:33:21;;;;;;;0.30;0.30;;;;;;;9.52;98.29;100862.09;4968494;28;20208;-69
2022/05/13 00:35:49;;;;;;;0.40;0.40;;;;;;;9.46;97.46;100856.13;4968588;28;20288;-69
2022/05/13 00:38:16;;;;;;;0.50;0.50;;;;;;;9.54;100.00;100855.13;4970022;28;20202;-69
2022/05/13 00:40:44;;;;;;;0.57;0.57;;;;;;;9.39;97.80;100856.22;4972687;28;20248;-69
2022/05/13 00:43:14;;;;;;;0.30;0.30;;;;;;;9.34;97.24;100852.84;4974057;28;20566;-69
2022/05/13 00:45:41;;;;;;;0.43;0.43;;;;;;;9.36;99.84;100859.75;4971770;28;20218;-69
2022/05/13 00:48:08;;;;;;;0.30;0.30;;;;;;;9.31;98.85;100852.94;4971610;28;20202;-70
2022/05/13 00:50:40;;;;;;;0.50;0.50;;;;;;;9.23;98.29;100858.25;4971744;28;20252;-70
2022/05/13 00:53:07;;;;;;;0.33;0.33;;;;;;;9.20;98.59;100866.09;4971386;28;20222;-69
2022/05/13 00:55:37;;;;;;;0.30;0.30;;;;;;;9.16;99.03;100864.44;4971737;28;20213;-69
2022/05/13 00:58:07;;;;;;;0.27;0.27;;;;;;;9.14;98.92;100856.66;4971376;28;20204;-70
2022/05/13 01:00:36;;;;;;;0.37;0.37;;;;;;;9.06;98.56;100858.53;4975305;28;20214;-70
2022/05/13 01:03:02;;;;;;;0.30;0.30;;;;;;;9.10;100.00;100858.44;4976445;28;20198;-69
2022/05/13 01:05:29;;;;;;;0.40;0.40;;;;;;;9.09;100.00;100853.25;4971704;28;20197;-69
2022/05/13 01:07:55;;;;;;;0.50;0.50;;;;;;;8.98;99.50;100858.63;4979260;28;20205;-69
2022/05/13 01:10:24;;;;;;;0.73;0.40;;;;;;;9.08;100.00;100856.75;4971158;28;20230;-69
2022/05/13 01:12:55;;;;;;;0.40;0.40;;;;;;;9.21;100.00;100853.06;4979358;28;20209;-70
2022/05/13 01:15:26;;;;;;;0.10;0.10;;;;;;;9.07;100.00;100855.88;4975025;28;20888;-70
2022/05/13 01:18:07;;;;;;;0.47;0.43;;;;;;;9.05;100.00;100859.41;4973919;28;20217;-70
2022/05/13 01:20:36;;;;;;;0.57;0.57;;;;;;;8.98;100.00;100860.38;4983086;28;20224;-69
2022/05/13 01:23:07;;;;;;;0.30;0.30;;;;;;;8.84;100.00;100852.81;4977546;28;20692;-70
2022/05/13 01:25:38;;;;;;;0.70;0.60;;;;;;;8.84;100.00;100853.66;4975041;28;20193;-69
2022/05/13 01:28:09;;;;;;;0.53;0.53;;;;;;;8.82;100.00;100851.97;4971283;28;20206;-69
2022/05/13 01:30:41;;;;;;;0.47;0.47;;;;;;;8.91;100.00;100855.28;4971107;28;20596;-69
2022/05/13 01:33:08;;;;;;;0.50;0.50;;;;;;;8.88;100.00;100844.06;4977769;28;20205;-69
2022/05/13 01:35:37;;;;;;;0.53;0.53;;;;;;;8.86;100.00;100838.88;4974631;28;20205;-69
2022/05/13 01:38:04;;;;;;;0.30;0.30;;;;;;;8.76;100.00;100844.25;4971524;28;20557;-69
2022/05/13 01:40:31;;;;;;;0.30;0.30;;;;;;;8.68;100.00;100844.38;4971026;28;20697;-69
2022/05/13 01:42:57;;;;;;;0.20;0.20;;;;;;;8.72;100.00;100833.03;4974888;28;20210;-70
2022/05/13 01:45:23;;;;;;;0.60;0.60;;;;;;;8.71;100.00;100834.78;4970529;28;20310;-69
2022/05/13 01:47:50;;;;;;;0.30;0.30;;;;;;;8.65;100.00;100831.41;4969997;28;20577;-69
2022/05/13 01:50:16;;;;;;;0.40;0.40;;;;;;;8.61;100.00;100830.59;4975802;28;20276;-69
2022/05/13 01:52:42;;;;;;;0.50;0.50;;;;;;;8.58;100.00;100822.84;4970835;28;20200;-69
2022/05/13 01:55:10;;;;;;;0.23;0.23;;;;;;;8.55;100.00;100822.03;4971040;28;20199;-69
2022/05/13 01:57:37;;;;;;;0.50;0.50;;;;;;;8.66;100.00;100828.81;4975429;28;20665;-70
2022/05/13 02:00:04;;;;;;;0.60;0.60;;;;;;;8.52;100.00;100828.16;4971664;28;20226;-69
2022/05/13 02:05:19;;;;;;;0.40;0.40;;;;;;;8.59;100.00;100821.13;4973330;28;20222;-69
2022/05/13 02:07:45;;;;;;;0.40;0.40;;;;;;;8.55;100.00;100827.22;4970488;28;20201;-70
2022/05/13 02:10:13;;;;;;;0.50;0.50;;;;;;;8.46;100.00;100826.50;4971001;28;20226;-69
2022/05/13 02:12:39;;;;;;;0.50;0.50;;;;;;;8.39;100.00;100824.84;4971300;28;20210;-69
2022/05/13 02:15:07;;;;;;;0.37;0.37;;;;;;;8.33;100.00;100825.75;4971470;28;20201;-69
2022/05/13 02:17:34;;;;;;;0.30;0.30;;;;;;;8.42;100.00;100818.72;4976269;28;20225;-69
2022/05/13 02:20:00;;;;;;;0.30;0.30;;;;;;;8.32;100.00;100828.41;4969218;28;20222;-69
2022/05/13 02:22:27;;;;;;;0.73;0.60;;;;;;;8.32;100.00;100823.22;4975302;28;20202;-69
2022/05/13 02:24:53;;;;;;;0.33;0.33;;;;;;;8.38;100.00;100824.84;4970413;28;20586;-69
2022/05/13 02:27:21;;;;;;;0.27;0.27;;;;;;;8.27;100.00;100828.44;4976664;28;20213;-69
2022/05/13 02:29:47;;;;;;;0.30;0.30;;;;;;;8.27;100.00;100820.66;4974681;28;20448;-69
2022/05/13 02:32:13;;;;;;;0.67;0.67;;;;;;;8.36;100.00;100824.03;4970501;28;20221;-69
2022/05/13 02:34:40;;;;;;;0.30;0.30;;;;;;;8.38;100.00;100824.84;4977067;28;20202;-69
2022/05/13 02:37:06;;;;;;;0.20;0.20;;;;;;;8.26;100.00;100824.13;4972371;28;20284;-69
2022/05/13 02:39:33;;;;;;;0.40;0.40;;;;;;;8.31;100.00;100824.94;4973477;28;20222;-69
2022/05/13 02:41:59;;;;;;;0.57;0.57;;;;;;;8.31;100.00;100831.88;4969912;28;20677;-70
2022/05/13 02:44:27;;;;;;;0.30;0.30;;;;;;;8.35;100.00;100825.75;4972967;28;20233;-69
2022/05/13 02:46:53;;;;;;;0.40;0.40;;;;;;;8.28;100.00;100830.16;4969477;28;20224;-69
2022/05/13 02:49:21;;;;;;;0.47;0.47;;;;;;;8.27;100.00;100819.81;4975942;28;20221;-70
2022/05/13 02:51:49;;;;;;;0.40;0.40;;;;;;;8.28;100.00;100827.56;4974066;28;20206;-69
2022/05/13 02:54:17;;;;;;;0.47;0.47;;;;;;;8.31;100.00;100832.72;4967173;28;20198;-69
2022/05/13 02:56:44;;;;;;;0.60;0.60;;;;;;;8.18;100.00;100830.31;4980863;28;20798;-70
2022/05/13 02:59:11;;;;;;;0.40;0.40;;;;;;;8.28;100.00;100831.91;4974968;28;20593;-69
2022/05/13 03:01:39;;;;;;;0.40;0.40;;;;;;;8.27;100.00;100828.44;4969084;28;20208;-69
2022/05/13 03:04:05;;;;;;;0.50;0.50;;;;;;;8.25;100.00;100827.63;4970966;28;20214;-69
2022/05/13 03:06:32;;;;;;;0.30;0.30;;;;;;;8.36;100.00;100829.22;4970809;28;20221;-69
2022/05/13 03:08:58;;;;;;;0.27;0.27;;;;;;;8.31;100.00;100824.94;4972095;28;20213;-69
2022/05/13 03:11:25;;;;;;;0.40;0.40;;;;;;;8.31;100.00;100826.69;4968948;28;20202;-70
2022/05/13 03:13:53;;;;;;;0.77;0.53;;;;;;;8.50;100.00;100822.13;4981962;28;20202;-69
2022/05/13 03:16:21;;;;;;;0.40;0.40;;;;;;;8.63;100.00;100818.44;4968214;28;20201;-69
2022/05/13 03:18:52;;;;;;;0.30;0.30;;;;;;;8.46;100.00;100820.41;4970250;28;20272;-69
2022/05/13 03:21:19;;;;;;;0.30;0.30;;;;;;;8.46;100.00;100817.81;4970813;28;20224;-69
2022/05/13 03:23:47;;;;;;;0.40;0.40;;;;;;;8.38;100.00;100817.06;4976242;28;20581;-69
2022/05/13 03:26:16;;;;;;;0.30;0.30;;;;;;;8.57;100.00;100818.53;4976914;28;20221;-70
2022/05/13 03:28:43;;;;;;;0.30;0.30;;;;;;;8.59;100.00;100815.94;4970499;28;20213;-69
2022/05/13 03:31:09;;;;;;;1.27;0.50;;;;;;;8.65;100.00;100815.81;4970978;28;20210;-69
2022/05/13 03:33:36;;;;;;;0.40;0.40;;;;;;;8.57;100.00;100815.94;4970814;28;20217;-69
2022/05/13 03:36:05;;;;;;;0.60;0.60;;;;;;;8.59;100.00;100814.19;4981115;28;20735;-70
2022/05/13 03:38:32;;;;;;;0.40;0.40;;;;;;;8.73;100.00;100813.13;4971240;28;20194;-69
2022/05/13 03:40:58;;;;;;;0.60;0.60;;;;;;;8.77;100.00;100812.19;4971015;28;20198;-70
2022/05/13 03:43:25;;;;;;;0.40;0.40;;;;;;;8.85;100.00;100811.19;4975696;28;20542;-69
2022/05/13 03:45:51;;;;;;;0.37;0.37;;;;;;;8.80;100.00;100814.75;4952498;28;20734;-70
2022/05/13 03:48:17;;;;;;;0.83;0.83;;;;;;;8.86;100.00;100812.88;4975781;28;20209;-69
2022/05/13 03:50:46;;;;;;;0.50;0.50;;;;;;;8.79;100.00;100813.00;4971911;28;20232;-70
2022/05/13 03:53:14;;;;;;;0.50;0.50;;;;;;;8.70;100.00;100812.25;4970403;28;20206;-69
2022/05/13 03:55:41;;;;;;;0.60;0.60;;;;;;;8.86;100.00;100805.06;4970025;28;20198;-70
2022/05/13 03:58:08;;;;;;;0.40;0.40;;;;;;;9.01;100.00;100808.34;4969997;28;20202;-69
2022/05/13 04:00:35;;;;;;;0.40;0.40;;;;;;;9.07;100.00;100800.41;4969898;28;20317;-69
2022/05/13 04:03:02;;;;;;;0.57;0.57;;;;;;;9.01;100.00;100803.13;4974036;28;20668;-69
2022/05/13 04:10:58;;;;;;;0.40;0.40;;;;;;;9.32;100.00;100811.25;4967596;28;20673;-69
2022/05/13 04:16:09;;;;;;;0.30;0.30;;;;;;;9.39;100.00;100817.19;4969048;28;20202;-70
2022/05/13 04:18:37;;;;;;;0.30;0.30;;;;;;;9.54;100.00;100819.53;4974371;28;20590;-69
2022/05/13 04:21:06;;;;;;;0.37;0.37;;;;;;;9.62;100.00;100817.66;4973032;28;20186;-70
2022/05/13 04:23:37;;;;;;;0.50;0.50;;;;;;;9.60;100.00;100819.44;4973095;28;20602;-70
2022/05/13 04:26:03;;;;;;;0.40;0.40;;;;;;;9.77;100.00;100818.22;4972861;28;20218;-69
2022/05/13 04:28:29;;;;;;;0.40;0.40;;;;;;;9.86;100.00;100823.25;4973381;28;20233;-69
2022/05/13 04:30:58;;;;;;;0.30;0.30;;;;;;;10.07;100.00;100821.94;4967036;28;20202;-70
2022/05/13 04:33:24;;;;;;;0.50;0.50;;;;;;;10.29;100.00;100827.59;4969599;28;20201;-69
2022/05/13 04:35:51;;;;;;;0.53;0.53;;;;;;;10.40;100.00;100828.22;4967193;28;20225;-70
2022/05/13 04:38:17;;;;;;;0.60;0.60;;;;;;;10.58;100.00;100826.09;4974726;28;20201;-70
2022/05/13 04:40:45;;;;;;;0.47;0.47;;;;;;;10.66;100.00;100828.50;4968625;28;20226;-70
2022/05/13 04:43:10;;;;;;;0.30;0.30;;;;;;;10.68;100.00;100834.56;4970315;28;20214;-70
2022/05/13 04:45:37;;;;;;;0.40;0.40;;;;;;;10.85;100.00;100835.00;4971149;28;20220;-70
2022/05/13 04:48:18;;;;;;;0.40;0.40;;;;;;;10.95;100.00;100830.44;4970891;28;20203;-70
2022/05/13 04:50:49;;;;;;;0.30;0.30;;;;;;;11.06;100.00;100831.03;4968392;28;20228;-70
2022/05/13 04:53:18;;;;;;;0.40;0.40;;;;;;;11.15;100.00;100837.75;4970677;28;20684;-69
2022/05/13 04:55:46;;;;;;;0.23;0.23;;;;;;;11.26;100.00;100833.16;4969546;28;20249;-70
2022/05/13 04:58:13;;;;;;;0.20;0.20;;;;;;;11.45;100.00;100835.25;4970283;28;20217;-70
2022/05/13 05:00:39;;;;;;;0.47;0.47;;;;;;;11.58;100.00;100835.81;4972839;28;20224;-70
2022/05/13 05:03:06;;;;;;;0.30;0.30;;;;;;;11.69;100.00;100841.59;4968306;28;20202;-70
2022/05/13 05:05:32;;;;;;;0.20;0.20;;;;;;;11.81;97.80;100841.25;4969116;28;20209;-70
2022/05/13 05:08:08;;;;;;;0.77;0.77;;;;;;;11.91;95.88;100842.75;4952281;28;20217;-70
2022/05/13 05:10:37;;;;;;;0.10;0.10;;;;;;;12.08;96.57;100842.28;4968914;28;20822;-70
2022/05/13 05:13:30;;;;;;;0.30;0.30;;;;;;;12.27;94.25;100844.34;4969884;28;20284;-70
2022/05/13 05:16:02;;;;;;;0.57;0.50;;;;;;;12.41;93.65;100846.53;4968742;28;20404;-70
2022/05/13 05:18:31;;;;;;;0.30;0.30;;;;;;;12.50;90.45;100847.13;4970076;28;20208;-70
2022/05/13 05:20:58;;;;;;;0.10;0.10;;;;;;;12.60;92.42;100845.06;4965521;28;20202;-70
2022/05/13 05:23:27;;;;;;;0.30;0.30;;;;;;;12.59;91.43;100843.34;4963615;28;20206;-70
2022/05/13 05:25:54;;;;;;;0.20;0.20;;;;;;;12.71;92.66;100843.88;4969990;28;20696;-70
2022/05/13 05:28:22;;;;;;;0.20;0.20;;;;;;;12.81;91.63;100842.69;4971825;28;20208;-70
2022/05/13 05:30:48;;;;;;;0.40;0.23;;;;;;;12.95;90.00;100848.34;4969289;28;20225;-70
2022/05/13 05:33:15;;;;;;;0.10;0.10;;;;;;;13.10;90.52;100846.13;4968513;28;20208;-70
2022/05/13 05:35:42;;;;;;;0.20;0.20;;;;;;;13.25;89.97;100851.69;4968935;28;20685;-70
2022/05/13 05:38:08;;;;;;;0.13;0.13;;;;;;;13.37;88.54;100853.09;4950210;28;20570;-70
2022/05/13 05:40:36;;;;;;;0.10;0.10;;;;;;;13.52;87.05;100848.22;4961421;28;20219;-70
2022/05/13 05:43:05;;;;;;;0.03;0.03;;;;;;;13.65;85.58;100857.38;4968506;28;20226;-70
2022/05/13 05:45:34;;;;;;;0.10;0.10;;;;;;;13.77;85.40;100856.06;4969249;28;20222;-70
2022/05/13 05:48:00;;;;;;;0.00;0.00;;;;;;;13.86;85.14;100855.75;4965836;28;20277;-70
2022/05/13 05:50:27;;;;;;;0.10;0.10;;;;;;;13.98;84.08;100862.28;4968544;28;20221;-70
2022/05/13 05:52:53;;;;;;;0.00;0.00;;;;;;;14.05;82.04;100861.16;4965997;28;20223;-70
2022/05/13 05:58:17;;;;;;;0.00;0.00;;;;;;;14.43;81.83;100853.63;4913867;29;20222;-70
2022/05/13 06:00:47;;;;;;;0.20;0.20;;;;;;;14.53;81.17;100857.59;4954040;28;20247;-70
2022/05/13 06:03:15;;;;;;;0.10;0.10;;;;;;;14.62;78.32;100860.81;4964078;28;20556;-70
2022/05/13 06:05:43;;;;;;;0.00;0.00;;;;;;;14.73;78.47;100861.25;4965986;28;20218;-70
2022/05/13 06:08:10;;;;;;;0.07;0.07;;;;;;;14.84;78.42;100858.19;4964048;28;20285;-70
2022/05/13 06:10:36;;;;;;;0.10;0.10;;;;;;;14.94;77.76;100857.75;4970030;28;20406;-70
2022/05/13 06:13:04;;;;;;;0.10;0.10;;;;;;;15.10;77.06;100851.88;4970512;28;20350;-70
2022/05/13 06:15:31;;;;;;;0.10;0.10;;;;;;;15.26;76.59;100860.81;4967511;28;20210;-70
2022/05/13 06:17:59;;;;;;;0.00;0.00;;;;;;;15.37;75.03;100856.88;4970019;28;20210;-70
2022/05/13 06:20:29;;;;;;;0.00;0.00;;;;;;;15.48;71.82;100862.56;4969813;28;20680;-70
2022/05/13 06:22:56;;;;;;;0.10;0.03;;;;;;;15.60;72.91;100861.16;4944960;28;20711;-70
2022/05/13 06:25:23;;;;;;;0.00;0.00;;;;;;;15.80;69.93;100868.22;4967994;28;20704;-70
2022/05/13 06:27:52;;;;;;;0.00;0.00;;;;;;;15.97;66.56;100870.09;4969521;28;20232;-70
2022/05/13 06:30:21;;;;;;;0.00;0.00;;;;;;;16.16;66.77;100859.59;4970875;28;20220;-70
2022/05/13 06:32:47;;;;;;;0.87;0.10;;;;;;;16.31;66.34;100863.31;4967343;28;20219;-70
2022/05/13 06:35:16;;;;;;;0.10;0.10;;;;;;;16.39;64.12;100871.69;4974609;28;20205;-71
2022/05/13 06:37:42;;;;;;;0.10;0.10;;;;;;;16.45;63.22;100867.00;4965418;28;20237;-71
2022/05/13 06:40:14;;;;;;;0.10;0.10;;;;;;;16.50;62.82;100871.19;4984203;28;20226;-69
2022/05/13 06:42:55;;;;;;;0.00;0.00;;;;;;;16.53;63.10;100865.78;4982140;28;20190;-71
2022/05/13 06:45:29;;;;;;;0.10;0.10;;;;;;;16.65;63.14;100868.66;4988518;28;20210;-69
2022/05/13 06:47:55;;;;;;;0.10;0.10;;;;;;;16.76;58.60;100868.19;4983117;28;20209;-71
2022/05/13 06:50:26;;;;;;;0.10;0.10;;;;;;;16.83;58.26;100861.72;4984131;28;20225;-70
2022/05/13 06:52:59;;;;;;;0.00;0.00;;;;;;;16.93;57.56;100867.38;4984259;28;20235;-71
2022/05/13 06:55:28;;;;;;;0.30;0.30;;;;;;;16.96;58.20;100859.34;4980517;28;20222;-70
2022/05/13 06:58:03;;;;;;;0.20;0.20;;;;;;;17.10;57.37;100866.56;4965922;28;20210;-71
2022/05/13 07:00:41;;;;;;;0.10;0.10;;;;;;;17.23;56.59;100861.53;4981639;28;20278;-71
2022/05/13 07:03:23;;;;;;;0.87;0.27;;;;;;;17.31;55.42;100863.78;4977659;28;20201;-71
2022/05/13 07:05:54;;;;;;;0.37;0.27;;;;;;;17.46;56.46;100854.25;4974542;28;20269;-70
2022/05/13 07:08:20;;;;;;;0.10;0.10;;;;;;;17.61;54.31;100861.38;4968028;28;20202;-70
2022/05/13 07:10:46;;;;;;;0.10;0.10;;;;;;;17.70;53.80;100849.50;4976175;28;20236;-70
2022/05/13 07:13:15;;;;;;;0.10;0.10;;;;;;;17.79;54.56;100844.56;4967536;28;20210;-70
2022/05/13 07:15:43;;;;;;;0.30;0.23;;;;;;;17.94;50.08;100860.53;4966143;28;20197;-70
2022/05/13 07:18:10;;;;;;;0.13;0.13;;;;;;;17.92;50.74;100854.50;4970749;28;20237;-70
2022/05/13 07:20:36;;;;;;;0.20;0.20;;;;;;;17.93;49.49;100854.41;4966887;28;20221;-70
2022/05/13 07:23:05;;;;;;;0.10;0.10;;;;;;;18.01;48.87;100853.16;4968158;28;20198;-70
2022/05/13 07:25:32;;;;;;;0.20;0.20;;;;;;;18.08;50.71;100854.53;4966342;28;20225;-70
2022/05/13 07:27:58;;;;;;;0.20;0.20;;;;;;;18.16;49.35;100853.19;4968390;28;20256;-70
2022/05/13 07:30:25;;;;;;;0.13;0.07;;;;;;;18.16;48.83;100852.34;4966147;28;20685;-70
2022/05/13 07:32:52;;;;;;;0.20;0.20;;;;;;;18.22;50.02;100840.59;4966466;28;20210;-70
2022/05/13 07:35:20;;;;;;;0.40;0.20;;;;;;;18.27;49.15;100842.03;4965465;28;20197;-70
2022/05/13 07:37:55;;;;;;;0.30;0.30;;;;;;;18.29;49.28;100836.66;4965680;28;20673;-70
2022/05/13 07:43:47;;;;;;;0.10;0.10;;;;;;;18.55;49.37;100825.50;4906635;29;20301;-70
2022/05/13 07:46:20;;;;;;;0.30;0.20;;;;;;;18.61;48.31;100828.75;4960910;28;20225;-70
2022/05/13 07:48:57;;;;;;;0.10;0.10;;;;;;;18.55;47.64;100822.88;4967872;28;20275;-70
2022/05/13 07:51:34;;;;;;;0.33;0.33;;;;;;;18.59;48.87;100826.22;4964843;28;20402;-70
2022/05/13 07:54:10;;;;;;;0.10;0.10;;;;;;;18.70;50.44;100822.97;4964448;28;20197;-70
2022/05/13 07:56:46;;;;;;;0.20;0.20;;;;;;;18.72;49.47;100819.28;4962810;28;20228;-70
2022/05/13 08:02:31;;;;;;;0.30;0.30;;;;;;;19.19;49.66;100811.34;4962616;28;20289;-70
2022/05/13 08:05:08;;;;;;;0.10;0.10;;;;;;;19.29;48.62;100821.31;4962345;28;20194;-70
2022/05/13 08:07:47;;;;;;;0.30;0.30;;;;;;;19.37;47.82;100818.19;4966414;28;20272;-70
2022/05/13 08:10:39;;;;;;;0.00;0.00;;;;;;;19.57;46.52;100819.63;4964192;28;20225;-70
2022/05/13 08:13:17;;;;;;;0.20;0.20;;;;;;;19.81;46.82;100813.81;4962858;28;20213;-70
2022/05/13 08:18:39;;;;;;;1.40;0.20;;;;;;;19.81;46.77;100813.81;4968437;28;20218;-70
2022/05/13 08:21:06;;;;;;;0.20;0.20;;;;;;;19.79;44.38;100810.41;4983557;28;20197;-71
2022/05/13 08:23:32;;;;;;;0.17;0.17;;;;;;;19.90;46.33;100800.00;4980105;28;20284;-69
2022/05/13 08:26:00;;;;;;;0.23;0.23;;;;;;;20.13;47.25;100801.19;4971650;28;20406;-68
2022/05/13 08:28:28;;;;;;;0.50;0.17;;;;;;;20.33;44.93;100810.50;4979467;28;20217;-71
2022/05/13 08:30:55;;;;;;;0.30;0.30;;;;;;;20.31;44.04;100807.13;4962995;28;20639;-71
2022/05/13 08:33:21;;;;;;;0.30;0.30;;;;;;;20.41;44.23;100802.09;4982457;28;20274;-71
2022/05/13 08:35:50;;;;;;;0.43;0.43;;;;;;;20.63;42.25;100806.00;4979630;28;20197;-69
2022/05/13 08:38:18;;;;;;;0.10;0.10;;;;;;;20.90;42.40;100809.50;4982308;28;20225;-71
2022/05/13 08:41:05;;;;;;;0.50;0.20;;;;;;;21.20;44.98;100802.25;4979689;28;20230;-71
2022/05/13 08:43:36;;;;;;;0.33;0.33;;;;;;;21.32;43.08;100806.72;4959715;28;20207;-70
2022/05/13 08:46:10;;;;;;;0.30;0.30;;;;;;;21.21;43.17;100803.94;4981286;28;20213;-70
2022/05/13 08:48:48;;;;;;;1.10;0.70;;;;;;;21.07;42.77;100810.16;4975077;28;20226;-68
2022/05/13 08:51:17;;;;;;;0.40;0.33;;;;;;;20.88;41.59;100813.19;4959839;28;20202;-69
2022/05/13 08:53:52;;;;;;;0.30;0.30;;;;;;;20.85;42.58;100811.59;4962675;28;20242;-69
2022/05/13 08:56:26;;;;;;;0.33;0.33;;;;;;;20.71;42.55;100809.03;4982703;28;20257;-70
2022/05/13 08:59:00;;;;;;;1.23;0.63;;;;;;;20.70;42.39;100807.31;4977738;28;20269;-69
2022/05/13 09:01:34;;;;;;;0.20;0.20;;;;;;;20.74;42.90;100811.47;4963837;28;20701;-70
2022/05/13 09:04:10;;;;;;;0.27;0.20;;;;;;;20.93;43.24;100801.34;4963859;28;20205;-70
2022/05/13 09:06:43;;;;;;;0.30;0.30;;;;;;;20.87;42.32;100800.91;4982659;28;20221;-69
2022/05/13 09:09:14;;;;;;;0.60;0.40;;;;;;;20.87;42.15;100806.19;4989621;28;20785;-71
2022/05/13 09:11:48;;;;;;;0.20;0.20;;;;;;;21.07;40.72;100815.47;4987483;28;20233;-70
2022/05/13 09:14:38;;;;;;;0.20;0.20;;;;;;;20.86;40.13;100810.66;4965272;28;20695;-70
2022/05/13 09:17:31;;;;;;;0.40;0.33;;;;;;;20.78;40.51;100813.81;4977994;28;20198;-70
2022/05/13 09:20:02;;;;;;;0.20;0.20;;;;;;;20.78;42.43;100800.56;4977400;28;20474;-71
2022/05/13 09:22:42;;;;;;;0.30;0.30;;;;;;;20.61;42.07;100790.19;4966240;28;20198;-71
2022/05/13 09:25:31;;;;;;;1.27;0.43;;;;;;;20.42;42.21;100787.88;4973326;28;20213;-69
2022/05/13 09:28:15;;;;;;;0.10;0.10;;;;;;;20.46;43.31;100778.81;4985377;28;20313;-69
2022/05/13 09:30:50;;;;;;;0.30;0.30;;;;;;;20.47;42.31;100788.44;4975203;28;20240;-71
2022/05/13 09:33:30;;;;;;;0.20;0.20;;;;;;;20.66;42.55;100790.75;4975118;28;20314;-71
2022/05/13 09:36:07;;;;;;;0.40;0.20;;;;;;;20.71;43.13;100787.81;4978988;28;20193;-71
2022/05/13 09:38:50;;;;;;;0.13;0.13;;;;;;;20.69;43.14;100790.56;4978662;28;20245;-70
2022/05/13 09:41:33;;;;;;;0.10;0.10;;;;;;;20.78;44.42;100781.16;4977946;28;20194;-71
2022/05/13 09:47:14;;;;;;;0.57;0.37;;;;;;;20.43;41.88;100782.50;5094980;27;20566;-68
2022/05/13 09:49:47;;;;;;;0.10;0.10;;;;;;;20.54;43.49;100786.25;5098508;28;20275;-70
2022/05/13 09:52:25;;;;;;;0.50;0.37;;;;;;;20.52;43.09;100790.78;5089676;28;20195;-69
2022/05/13 09:54:59;;;;;;;0.30;0.30;;;;;;;20.31;42.55;100801.81;5099464;28;20257;-69
2022/05/13 09:57:34;;;;;;;0.50;0.37;;;;;;;20.19;41.95;100795.53;5089865;28;20256;-71
2022/05/13 10:00:13;;;;;;;0.07;0.07;;;;;;;20.04;43.31;100793.84;5084250;28;20225;-68
2022/05/13 10:03:10;;;;;;;0.27;0.27;;;;;;;19.87;42.85;100789.59;5093272;28;20243;-70
2022/05/13 10:05:39;;;;;;;0.70;0.50;;;;;;;19.77;42.70;100791.13;5087429;28;20829;-70
2022/05/13 10:08:18;;;;;;;0.50;0.43;;;;;;;19.74;43.37;100796.63;5093877;28;20242;-70
2022/05/13 10:14:03;;;;;;;0.53;0.20;;;;;;;19.94;43.00;100780.34;5043030;28;20192;-68
2022/05/13 10:16:39;;;;;;;1.00;0.50;;;;;;;20.14;44.75;100765.84;5069905;28;20441;-70
2022/05/13 10:19:20;;;;;;;1.70;0.93;;;;;;;20.34;43.14;100756.63;5097223;28;20222;-69
2022/05/13 10:21:54;;;;;;;0.30;0.30;;;;;;;20.75;43.17;100750.41;5100772;28;20198;-68
2022/05/13 10:24:40;;;;;;;0.20;0.20;;;;;;;20.89;42.76;100743.34;5095491;28;20680;-70
2022/05/13 10:27:21;;;;;;;0.30;0.30;;;;;;;20.83;42.39;100736.66;5088130;28;20186;-69
2022/05/13 10:29:58;;;;;;;0.50;0.40;;;;;;;21.07;43.31;100742.13;5083548;28;20680;-70
2022/05/13 10:32:45;;;;;;;0.37;0.37;;;;;;;21.30;42.98;100737.88;5088456;28;20304;-71
2022/05/13 10:35:18;;;;;;;0.30;0.30;;;;;;;21.61;42.91;100743.69;5086358;28;20222;-70
2022/05/13 10:38:13;;;;;;;0.57;0.30;;;;;;;21.70;41.91;100764.25;5074141;28;20195;-69
2022/05/13 10:40:49;;;;;;;0.50;0.50;;;;;;;21.75;40.73;100756.81;5075818;28;20308;-68
2022/05/13 10:43:34;;;;;;;0.40;0.40;;;;;;;21.14;40.50;100769.03;5082888;28;20202;-68
2022/05/13 10:46:19;;;;;;;1.30;1.07;;;;;;;20.90;41.70;100763.59;5080454;28;20222;-68
2022/05/13 10:48:51;;;;;;;1.00;0.67;;;;;;;20.92;40.84;100756.41;5088434;28;20195;-70
2022/05/13 10:51:32;;;;;;;0.30;0.30;;;;;;;21.08;40.79;100756.19;5076809;28;20269;-70
2022/05/13 10:54:21;;;;;;;0.50;0.40;;;;;;;20.85;37.79;100749.81;5082225;28;20198;-70
2022/05/13 10:57:01;;;;;;;0.20;0.20;;;;;;;20.96;36.22;100753.41;5077249;28;20674;-70
2022/05/13 10:59:39;;;;;;;0.40;0.40;;;;;;;21.32;39.14;100743.06;5062586;28;20230;-70
2022/05/13 11:02:34;;;;;;;0.30;0.30;;;;;;;21.43;36.89;100745.81;5076863;28;20811;-70
2022/05/13 11:05:13;;;;;;;0.07;0.07;;;;;;;21.37;37.38;100740.91;5066243;28;20199;-68
2022/05/13 11:07:47;;;;;;;0.10;0.10;;;;;;;21.53;38.89;100738.94;5073720;28;20199;-67
2022/05/13 11:10:34;;;;;;;0.20;0.20;;;;;;;21.74;35.90;100760.44;5076168;28;20219;-70
2022/05/13 11:13:25;;;;;;;0.40;0.33;;;;;;;21.98;35.79;100750.84;5068569;28;20202;-69
2022/05/13 11:16:01;;;;;;;0.50;0.50;;;;;;;21.67;33.92;100745.94;5074222;28;20202;-68
2022/05/13 11:18:41;;;;;;;0.40;0.40;;;;;;;21.69;36.45;100738.69;5073730;28;20281;-67
2022/05/13 11:21:22;;;;;;;3.23;0.30;;;;;;;21.45;36.32;100743.06;5065521;28;20195;-70
2022/05/13 11:27:02;;;;;;;0.43;0.43;;;;;;;21.10;37.63;100749.81;5064965;28;20623;-70
2022/05/13 11:29:49;;;;;;;0.30;0.30;;;;;;;21.06;37.31;100740.41;5067281;28;20215;-70
2022/05/13 11:32:29;;;;;;;0.10;0.10;;;;;;;20.97;37.49;100731.28;5060187;28;20199;-69
2022/05/13 11:35:11;;;;;;;0.50;0.50;;;;;;;20.78;37.61;100734.31;5058830;28;20203;-70
2022/05/13 11:37:40;;;;;;;0.93;0.40;;;;;;;20.85;38.67;100744.53;5063894;28;20207;-70
2022/05/13 11:40:29;;;;;;;0.43;0.30;;;;;;;20.83;37.91;100738.47;5060375;28;20280;-70
2022/05/13 11:43:25;;;;;;;0.43;0.37;;;;;;;21.38;37.07;100748.78;5063115;28;20266;-72
2022/05/13 11:46:33;;;;;;;0.10;0.10;;;;;;;21.40;35.64;100750.47;5067174;28;20734;-72
2022/05/13 11:49:14;;;;;;;0.27;0.27;;;;;;;21.28;36.48;100745.09;5063176;28;20214;-70
2022/05/13 11:51:43;;;;;;;0.03;0.03;;;;;;;21.28;36.94;100752.16;5069462;28;20194;-70
2022/05/13 11:54:22;;;;;;;0.33;0.30;;;;;;;21.23;37.11;100741.91;5057920;28;20191;-69
2022/05/13 11:57:11;;;;;;;0.47;0.40;;;;;;;20.97;37.79;100755.13;5075118;28;20182;-69
2022/05/13 11:59:47;;;;;;;0.30;0.30;;;;;;;20.79;37.73;100748.41;5067900;28;20239;-70
2022/05/13 12:02:47;;;;;;;0.30;0.30;;;;;;;20.54;38.29;100744.72;5068815;28;20218;-69
2022/05/13 12:05:38;;;;;;;0.17;0.17;;;;;;;20.55;38.37;100750.88;5072999;28;20199;-69
2022/05/13 12:08:24;;;;;;;0.13;0.13;;;;;;;20.67;38.80;100743.94;5066426;28;20203;-68
2022/05/13 12:11:27;;;;;;;0.53;0.50;;;;;;;20.58;40.16;100755.97;5075337;28;20275;-69
2022/05/13 12:14:11;;;;;;;0.40;0.40;;;;;;;20.35;41.17;100754.81;5069131;28;20678;-67
2022/05/13 12:16:49;;;;;;;0.20;0.20;;;;;;;20.31;41.55;100766.56;5059703;28;20187;-68
2022/05/13 12:22:43;;;;;;;0.57;0.40;;;;;;;20.41;41.42;100765.03;5046664;28;20200;-69